Time;durP1;ratioP1;P1;durP2;ratioP2;P2;SDS_P1;SDS_P2;PMS_P1;PMS_P2;Temp;Humidity;BMP_temperature;BMP_pressure;BME280_temperature;BME280_humidity;BME280_pressure;Samples;Min_cycle;Max_cycle;Signal;HPM_P1;HPM_P2
2022/10/05 00:00:27;;;;;;;6.50;5.90;;;;;;;6.98;100.00;97060.03;5030010;28;105177;-59
2022/10/05 00:02:56;;;;;;;5.80;5.30;;;;;;;7.01;100.00;97054.31;5033630;28;101763;-58
2022/10/05 00:05:29;;;;;;;5.80;5.30;;;;;;;7.00;100.00;97060.63;5031372;28;102622;-58
2022/10/05 00:08:01;;;;;;;5.77;5.20;;;;;;;6.91;100.00;97064.53;5032000;28;102335;-58
2022/10/05 00:10:30;;;;;;;6.73;5.97;;;;;;;6.71;100.00;97069.91;5030252;28;104822;-58
2022/10/05 00:12:57;;;;;;;6.83;5.50;;;;;;;6.77;100.00;97065.63;5029802;28;105848;-58
2022/10/05 00:15:25;;;;;;;7.40;5.77;;;;;;;6.84;100.00;97063.75;5030405;28;101939;-59
2022/10/05 00:17:52;;;;;;;5.90;5.27;;;;;;;6.84;100.00;97063.75;5030114;27;105162;-58
2022/10/05 00:20:22;;;;;;;5.47;5.03;;;;;;;6.87;100.00;97063.34;5029524;28;105175;-58
2022/10/05 00:22:55;;;;;;;5.83;5.20;;;;;;;6.85;100.00;97068.00;5033533;28;101948;-58
2022/10/05 00:25:22;;;;;;;7.50;5.30;;;;;;;6.75;100.00;97070.28;5029725;28;105518;-59
2022/10/05 00:27:55;;;;;;;5.60;5.00;;;;;;;6.72;100.00;97065.44;5031604;27;102009;-58
2022/10/05 00:30:23;;;;;;;5.40;4.90;;;;;;;6.76;100.00;97061.38;5030119;28;103956;-59
2022/10/05 00:32:51;;;;;;;5.50;5.00;;;;;;;6.78;100.00;97059.31;5030684;27;103108;-58
2022/10/05 00:35:19;;;;;;;5.50;4.80;;;;;;;6.83;100.00;97054.22;5030048;28;101891;-58
2022/10/05 00:37:52;;;;;;;6.03;5.43;;;;;;;6.68;100.00;97051.00;5030030;28;105150;-58
2022/10/05 00:40:32;;;;;;;5.37;4.87;;;;;;;6.66;100.00;97048.56;5029601;28;105476;-58
2022/10/05 00:43:15;;;;;;;5.17;4.67;;;;;;;6.60;100.00;97045.97;5029882;28;101856;-58
2022/10/05 00:45:49;;;;;;;5.47;4.97;;;;;;;6.67;100.00;97047.56;5032463;28;105507;-58
2022/10/05 00:48:23;;;;;;;5.37;4.87;;;;;;;6.67;100.00;97044.94;5029566;28;101792;-59
2022/10/05 00:51:09;;;;;;;5.10;4.70;;;;;;;6.68;100.00;97048.38;5029813;28;105116;-58
2022/10/05 00:53:44;;;;;;;5.30;4.90;;;;;;;6.58;100.00;97026.88;5029053;28;105910;-58
2022/10/05 00:56:30;;;;;;;5.40;4.90;;;;;;;6.54;100.00;97025.69;5029625;28;101871;-58
2022/10/05 00:59:06;;;;;;;4.73;4.33;;;;;;;6.30;100.00;97026.34;5029871;28;104956;-58
2022/10/05 01:01:37;;;;;;;4.43;4.13;;;;;;;6.29;100.00;97015.00;5030556;28;102580;-58
2022/10/05 01:04:16;;;;;;;4.07;3.73;;;;;;;6.21;100.00;97017.06;5029677;28;101677;-58
2022/10/05 01:06:55;;;;;;;4.87;4.40;;;;;;;6.25;100.00;97018.25;5029541;28;105629;-58
2022/10/05 01:09:33;;;;;;;5.43;4.93;;;;;;;6.33;100.00;97012.75;5032165;28;104371;-59
2022/10/05 01:12:09;;;;;;;4.73;4.33;;;;;;;6.33;100.00;97007.47;5029509;28;105150;-58
2022/10/05 01:14:46;;;;;;;4.57;4.17;;;;;;;6.34;100.00;97009.09;5029012;28;103949;-58
2022/10/05 01:17:18;;;;;;;5.30;4.90;;;;;;;6.27;100.00;96997.75;5029432;28;101871;-59
2022/10/05 01:20:10;;;;;;;4.90;4.40;;;;;;;6.29;100.00;97001.78;5030847;27;102309;-58
2022/10/05 01:22:59;;;;;;;4.73;4.33;;;;;;;6.30;100.00;96994.66;5028703;28;105670;-58
2022/10/05 01:25:35;;;;;;;4.63;4.23;;;;;;;6.27;100.00;96995.09;5029489;28;101877;-59
2022/10/05 01:28:10;;;;;;;4.50;4.10;;;;;;;6.30;100.00;96997.31;5030351;28;103019;-59
2022/10/05 01:30:48;;;;;;;4.60;4.20;;;;;;;6.31;100.00;96988.34;5027769;28;105445;-59
2022/10/05 01:33:24;;;;;;;5.47;5.07;;;;;;;6.40;100.00;96992.41;5032717;28;101940;-59
2022/10/05 01:36:00;;;;;;;6.00;5.40;;;;;;;6.40;100.00;96995.03;5028445;28;105768;-58
2022/10/05 01:38:39;;;;;;;5.40;4.90;;;;;;;6.42;100.00;96985.06;5029333;28;101801;-59
2022/10/05 01:41:18;;;;;;;5.60;5.10;;;;;;;6.38;100.00;96984.69;5028969;28;105206;-58
2022/10/05 01:43:49;;;;;;;5.07;4.60;;;;;;;6.31;100.00;96972.50;5030024;28;101886;-58
2022/10/05 01:46:26;;;;;;;5.20;4.80;;;;;;;6.28;100.00;96972.94;5028928;28;102106;-58
2022/10/05 01:49:22;;;;;;;4.47;4.07;;;;;;;6.25;100.00;96968.06;5028435;28;105287;-58
2022/10/05 01:52:03;;;;;;;4.23;3.93;;;;;;;6.10;100.00;96964.88;5028232;28;103415;-58
2022/10/05 01:54:40;;;;;;;4.00;3.70;;;;;;;6.04;100.00;96968.34;5028817;28;102362;-59
2022/10/05 01:57:17;;;;;;;4.87;4.37;;;;;;;6.08;100.00;96966.91;5031752;28;104851;-58
2022/10/05 01:59:59;;;;;;;4.80;4.30;;;;;;;5.95;100.00;96965.13;5028909;28;101899;-58
2022/10/05 02:02:29;;;;;;;4.50;4.10;;;;;;;6.07;100.00;96965.28;5028939;28;105527;-58
2022/10/05 02:05:03;;;;;;;5.47;4.47;;;;;;;6.06;100.00;96961.03;5029154;28;103602;-58
2022/10/05 02:07:38;;;;;;;4.50;4.10;;;;;;;6.06;100.00;96950.47;5028755;28;102138;-59
2022/10/05 02:10:13;;;;;;;4.67;4.27;;;;;;;6.11;100.00;96966.50;5028803;28;105647;-58
2022/10/05 02:12:42;;;;;;;4.87;4.13;;;;;;;6.13;100.00;96953.91;5028067;28;105589;-58
2022/10/05 02:15:17;;;;;;;3.97;3.67;;;;;;;5.96;100.00;96952.75;5028644;28;102025;-58
2022/10/05 02:17:48;;;;;;;4.67;4.27;;;;;;;5.98;100.00;96948.06;5028539;28;103913;-58
2022/10/05 02:20:23;;;;;;;4.97;4.57;;;;;;;6.05;100.00;96947.00;5031355;28;102099;-58
2022/10/05 02:22:53;;;;;;;5.47;4.97;;;;;;;6.14;100.00;96942.31;5028551;28;105060;-58
2022/10/05 02:25:26;;;;;;;22.93;6.20;;;;;;;5.97;100.00;96949.06;5027917;28;105776;-58
2022/10/05 02:27:58;;;;;;;6.13;5.43;;;;;;;5.96;100.00;96947.47;5028014;28;101811;-58
2022/10/05 02:30:30;;;;;;;8.93;6.20;;;;;;;5.96;100.00;96936.91;5028519;28;105014;-59
2022/10/05 02:33:01;;;;;;;6.57;5.97;;;;;;;6.02;100.00;96946.63;5027686;28;105815;-58
2022/10/05 02:35:28;;;;;;;7.67;6.40;;;;;;;6.08;100.00;96941.34;5029762;27;101800;-59
2022/10/05 02:38:05;;;;;;;7.40;6.70;;;;;;;6.06;100.00;96945.19;5028435;28;105214;-58
2022/10/05 02:40:41;;;;;;;6.70;6.07;;;;;;;6.16;100.00;96940.28;5031049;27;104102;-58
2022/10/05 02:43:21;;;;;;;7.10;6.40;;;;;;;6.20;100.00;96941.47;5031860;28;103620;-58
2022/10/05 02:45:57;;;;;;;7.17;6.50;;;;;;;5.96;100.00;96944.81;5031222;28;105155;-59
2022/10/05 02:48:35;;;;;;;6.97;6.10;;;;;;;6.07;100.00;96941.53;5031500;28;102141;-58
2022/10/05 02:51:09;;;;;;;6.23;5.63;;;;;;;6.06;100.00;96938.06;5031790;28;105316;-59
2022/10/05 02:53:49;;;;;;;6.73;5.80;;;;;;;6.12;100.00;96941.72;5030960;28;105749;-58
2022/10/05 02:56:26;;;;;;;6.30;5.70;;;;;;;6.14;100.00;96939.66;5031902;28;102125;-58
2022/10/05 02:59:02;;;;;;;6.40;5.80;;;;;;;6.05;100.00;96938.31;5031560;28;105414;-58
2022/10/05 03:01:37;;;;;;;6.17;5.60;;;;;;;6.07;100.00;96937.06;5030967;28;104214;-58
2022/10/05 03:04:17;;;;;;;6.23;5.63;;;;;;;6.06;100.00;96942.56;5034751;28;102372;-58
2022/10/05 03:06:52;;;;;;;8.73;5.90;;;;;;;6.03;100.00;96943.78;5031004;28;104991;-58
2022/10/05 03:09:24;;;;;;;5.70;5.20;;;;;;;6.06;100.00;96953.91;5031537;28;101885;-58
2022/10/05 03:12:04;;;;;;;6.07;5.40;;;;;;;5.94;100.00;96938.94;5031495;28;105330;-58
2022/10/05 03:14:45;;;;;;;6.23;5.63;;;;;;;5.98;100.00;96953.34;5030713;28;105328;-58
2022/10/05 03:17:18;;;;;;;6.10;5.50;;;;;;;5.94;100.00;96954.78;5031063;28;102100;-58
2022/10/05 03:20:08;;;;;;;6.43;5.83;;;;;;;5.94;100.00;96957.44;5031289;28;105453;-58
2022/10/05 03:22:47;;;;;;;6.63;5.60;;;;;;;5.93;100.00;96956.59;5030752;28;105088;-58
2022/10/05 03:25:53;;;;;;;7.37;6.67;;;;;;;5.90;100.00;96954.38;5031273;28;102083;-58
2022/10/05 03:28:27;;;;;;;11.70;9.87;;;;;;;5.95;100.00;96940.56;5033668;28;104677;-59
2022/10/05 03:31:00;;;;;;;10.53;9.53;;;;;;;6.02;100.00;96931.63;5030902;28;101747;-58
2022/10/05 03:33:40;;;;;;;8.87;7.97;;;;;;;5.98;100.00;96930.41;5031204;28;105386;-59
2022/10/05 03:36:18;;;;;;;7.97;7.17;;;;;;;5.87;100.00;96938.13;5030545;28;105016;-58
2022/10/05 03:38:53;;;;;;;7.80;7.10;;;;;;;5.82;100.00;96951.97;5030781;28;102097;-58
2022/10/05 03:41:27;;;;;;;7.07;6.37;;;;;;;5.83;100.00;96944.88;5030969;28;105362;-58
2022/10/05 03:44:15;;;;;;;6.40;5.80;;;;;;;5.82;100.00;96959.06;5030316;28;106081;-58
2022/10/05 03:46:53;;;;;;;6.87;6.20;;;;;;;5.90;100.00;96953.56;5027793;28;102055;-58
2022/10/05 03:49:31;;;;;;;7.83;6.73;;;;;;;5.87;100.00;96953.97;5030385;28;104882;-58
2022/10/05 03:52:05;;;;;;;7.70;6.90;;;;;;;5.86;100.00;96957.63;5033397;28;105551;-59
2022/10/05 03:54:38;;;;;;;7.87;7.07;;;;;;;5.81;100.00;96954.81;5030326;28;104936;-58
2022/10/05 03:57:10;;;;;;;13.70;9.33;;;;;;;5.75;100.00;96956.44;5030275;28;104683;-58
2022/10/05 03:59:46;;;;;;;9.00;8.17;;;;;;;5.65;100.00;96949.94;5030571;28;101783;-58
2022/10/05 04:02:21;;;;;;;7.27;6.57;;;;;;;5.67;100.00;96953.19;5030845;28;104921;-58
2022/10/05 04:04:55;;;;;;;6.67;6.07;;;;;;;5.78;100.00;96952.56;5030057;28;104884;-58
2022/10/05 04:07:34;;;;;;;6.77;6.10;;;;;;;5.89;100.00;96962.53;5030361;28;101881;-58
2022/10/05 04:10:06;;;;;;;6.43;5.40;;;;;;;5.81;100.00;96970.63;5030654;28;104380;-58
2022/10/05 04:12:39;;;;;;;6.00;5.40;;;;;;;5.86;100.00;96973.47;5029932;28;105124;-58
2022/10/05 04:15:15;;;;;;;7.77;6.03;;;;;;;5.73;100.00;96976.13;5035413;27;101709;-58
2022/10/05 04:17:46;;;;;;;6.37;5.50;;;;;;;5.69;100.00;96972.25;5029721;28;105452;-58
2022/10/05 04:20:19;;;;;;;5.83;5.33;;;;;;;5.73;100.00;96970.84;5030348;28;101766;-58
2022/10/05 04:22:53;;;;;;;19.07;7.37;;;;;;;5.80;100.00;96966.38;5030252;28;105471;-58
2022/10/05 04:25:24;;;;;;;7.87;6.27;;;;;;;5.79;100.00;96973.44;5031294;27;103143;-58
2022/10/05 04:27:55;;;;;;;6.10;5.60;;;;;;;5.74;100.00;96965.34;5030060;28;101782;-58
2022/10/05 04:30:23;;;;;;;7.30;6.37;;;;;;;5.85;100.00;96956.03;5030148;28;104983;-58
2022/10/05 04:32:56;;;;;;;7.60;6.30;;;;;;;5.81;100.00;96966.19;5029256;28;102953;-58
2022/10/05 04:35:55;;;;;;;7.30;6.60;;;;;;;5.81;100.00;96965.34;5033288;28;102181;-58
2022/10/05 04:38:37;;;;;;;6.90;6.30;;;;;;;5.82;100.00;96967.81;5029490;28;105368;-58
2022/10/05 04:41:25;;;;;;;6.67;6.07;;;;;;;5.79;100.00;96968.16;5030016;28;102113;-58
2022/10/05 04:44:07;;;;;;;6.70;5.90;;;;;;;5.76;100.00;96967.78;5030110;28;104904;-58
2022/10/05 04:46:48;;;;;;;6.50;5.90;;;;;;;5.75;100.00;96966.16;5029665;28;104030;-58
2022/10/05 04:49:32;;;;;;;6.43;5.83;;;;;;;5.72;100.00;96966.59;5029991;28;101694;-58
2022/10/05 04:52:10;;;;;;;6.50;5.90;;;;;;;5.74;100.00;96964.53;5030170;28;105424;-58
2022/10/05 04:54:53;;;;;;;6.43;5.93;;;;;;;5.75;100.00;96959.06;5029519;28;105661;-58
2022/10/05 04:57:48;;;;;;;6.80;6.13;;;;;;;5.78;100.00;96965.75;5029997;28;101838;-58
2022/10/05 05:00:23;;;;;;;6.33;5.73;;;;;;;5.79;100.00;96964.72;5032833;28;105331;-58
2022/10/05 05:03:09;;;;;;;6.97;6.37;;;;;;;5.76;100.00;96962.50;5030015;28;101916;-59
2022/10/05 05:05:48;;;;;;;6.40;5.80;;;;;;;5.63;100.00;96960.69;5028629;28;103752;-58
2022/10/05 05:08:35;;;;;;;6.40;5.90;;;;;;;5.65;100.00;96956.03;5029454;28;105772;-58
2022/10/05 05:11:11;;;;;;;6.17;5.27;;;;;;;5.70;100.00;96952.78;5029922;28;102237;-58
2022/10/05 05:14:07;;;;;;;8.90;6.03;;;;;;;5.64;100.00;96956.22;5029658;28;104752;-58
2022/10/05 05:16:40;;;;;;;5.70;5.30;;;;;;;5.58;100.00;96954.41;5029253;28;105877;-58
2022/10/05 05:19:33;;;;;;;8.70;6.00;;;;;;;5.55;100.00;96957.44;5029882;28;101914;-58
2022/10/05 05:22:04;;;;;;;5.60;5.10;;;;;;;5.59;100.00;96963.94;5029533;28;105209;-58
2022/10/05 05:24:46;;;;;;;6.17;5.63;;;;;;;5.62;100.00;96964.34;5032242;28;104265;-59
2022/10/05 05:27:43;;;;;;;6.33;5.83;;;;;;;5.60;100.00;96979.56;5029040;28;105384;-58
2022/10/05 05:30:21;;;;;;;6.87;6.17;;;;;;;5.60;100.00;96976.13;5028467;28;105165;-59
2022/10/05 05:33:04;;;;;;;7.07;6.37;;;;;;;5.65;100.00;96978.94;5029513;28;101744;-58
2022/10/05 05:35:55;;;;;;;6.10;5.60;;;;;;;5.63;100.00;96988.91;5029440;28;105419;-59
2022/10/05 05:38:31;;;;;;;6.33;5.83;;;;;;;5.72;100.00;96983.22;5028836;28;105285;-58
2022/10/05 05:41:09;;;;;;;5.77;5.27;;;;;;;5.73;100.00;96995.38;5029261;28;101918;-58
2022/10/05 05:43:55;;;;;;;6.80;6.20;;;;;;;5.71;100.00;96991.31;5029447;28;105796;-59
2022/10/05 05:46:28;;;;;;;6.50;5.90;;;;;;;5.81;100.00;96991.75;5028401;28;105687;-58
2022/10/05 05:48:57;;;;;;;7.90;5.60;;;;;;;5.90;100.00;96991.31;5031887;28;101997;-59
2022/10/05 05:51:30;;;;;;;7.30;6.60;;;;;;;5.96;100.00;96987.88;5028125;28;105284;-58
2022/10/05 05:54:06;;;;;;;7.63;6.70;;;;;;;6.08;100.00;96993.31;5028817;28;102177;-58
2022/10/05 05:56:39;;;;;;;6.93;6.23;;;;;;;6.19;100.00;96990.03;5030452;27;102785;-58
2022/10/05 05:59:15;;;;;;;7.67;6.87;;;;;;;6.31;100.00;96991.81;5028356;28;105633;-58
2022/10/05 06:01:49;;;;;;;7.50;6.80;;;;;;;6.29;100.00;96991.22;5023853;28;102285;-59
2022/10/05 06:04:19;;;;;;;7.27;6.60;;;;;;;6.36;100.00;96992.00;5027107;28;105158;-59
2022/10/05 06:06:51;;;;;;;8.63;6.97;;;;;;;6.43;100.00;96992.78;5027410;28;105889;-59
2022/10/05 06:09:23;;;;;;;6.97;6.37;;;;;;;6.49;100.00;96997.22;5028354;28;102107;-59
2022/10/05 06:12:13;;;;;;;6.97;6.37;;;;;;;6.69;100.00;96997.13;5033325;27;102433;-59
2022/10/05 06:14:46;;;;;;;7.83;6.40;;;;;;;6.71;100.00;97003.81;5030388;27;101637;-59
2022/10/05 06:17:19;;;;;;;6.63;5.73;;;;;;;6.82;100.00;96997.88;5030482;27;105695;-59
2022/10/05 06:19:49;;;;;;;6.80;6.20;;;;;;;6.85;100.00;97001.94;5031799;28;105607;-59
2022/10/05 06:22:22;;;;;;;7.30;6.60;;;;;;;6.87;100.00;96995.41;5032208;28;101866;-59
2022/10/05 06:25:03;;;;;;;7.07;6.37;;;;;;;7.00;100.00;96994.53;5031923;28;105930;-59
2022/10/05 06:28:01;;;;;;;7.40;6.30;;;;;;;7.00;100.00;96990.06;5031177;28;105715;-59
2022/10/05 06:30:42;;;;;;;6.90;6.30;;;;;;;7.16;100.00;96994.00;5031653;28;101892;-59
2022/10/05 06:33:23;;;;;;;5.63;5.23;;;;;;;7.34;100.00;96997.53;5031896;28;105583;-59
2022/10/05 06:36:04;;;;;;;6.13;5.70;;;;;;;7.50;100.00;97001.47;5034966;28;105461;-59
2022/10/05 06:38:46;;;;;;;6.40;5.87;;;;;;;7.64;100.00;96998.50;5032005;28;104871;-59
2022/10/05 06:41:22;;;;;;;6.43;5.90;;;;;;;7.89;100.00;97001.94;5031594;28;106012;-59
2022/10/05 06:43:57;;;;;;;7.70;6.60;;;;;;;8.12;100.00;96996.03;5032193;28;101814;-58
2022/10/05 06:47:15;;;;;;;6.97;6.37;;;;;;;8.33;100.00;96999.06;5031906;27;103309;-58
2022/10/05 06:50:13;;;;;;;8.77;7.20;;;;;;;8.55;100.00;97000.22;5032863;28;102133;-58
2022/10/05 06:53:08;;;;;;;10.07;8.50;;;;;;;8.88;100.00;97008.56;5031831;28;101790;-59
2022/10/05 06:55:49;;;;;;;10.30;9.20;;;;;;;9.11;100.00;97007.84;5031952;28;105194;-59
2022/10/05 06:58:33;;;;;;;24.50;18.67;;;;;;;9.15;100.00;97009.00;5034833;28;105053;-57
2022/10/05 07:01:10;;;;;;;21.53;14.20;;;;;;;9.20;100.00;97011.78;5030761;28;105406;-59
2022/10/05 07:03:49;;;;;;;18.83;14.30;;;;;;;9.44;100.00;97014.28;5030219;28;105856;-59
2022/10/05 07:06:22;;;;;;;11.60;9.90;;;;;;;9.62;100.00;97016.88;5030713;28;102044;-58
2022/10/05 07:09:13;;;;;;;13.17;10.60;;;;;;;9.96;100.00;97008.09;5031817;28;105234;-58
2022/10/05 07:11:55;;;;;;;13.83;11.17;;;;;;;10.08;100.00;97006.28;5030254;28;104951;-58
2022/10/05 07:14:42;;;;;;;19.23;14.60;;;;;;;10.17;100.00;97007.56;5030665;28;101793;-59
2022/10/05 07:20:46;;;;;;;14.80;11.80;;;;;;;10.74;100.00;97001.31;5029784;28;105775;-59
2022/10/05 07:23:31;;;;;;;14.30;11.70;;;;;;;11.05;100.00;97008.00;5032758;28;102057;-59
2022/10/05 07:26:26;;;;;;;12.13;10.93;;;;;;;11.27;100.00;97009.78;5031465;27;102493;-58
2022/10/05 07:29:11;;;;;;;14.10;12.60;;;;;;;11.47;100.00;97006.66;5029358;28;101879;-59
2022/10/05 07:31:46;;;;;;;13.27;11.87;;;;;;;11.69;100.00;97000.41;5030241;28;104910;-59
2022/10/05 07:34:24;;;;;;;12.60;11.30;;;;;;;11.88;100.00;97003.63;5029809;28;105114;-59
2022/10/05 07:39:57;;;;;;;7.97;7.27;;;;;;;12.18;100.00;96996.06;5030996;28;104746;-59
2022/10/05 07:42:37;;;;;;;7.90;6.17;;;;;;;12.32;100.00;96990.13;5030546;28;106031;-59
2022/10/05 07:45:18;;;;;;;8.50;7.03;;;;;;;12.54;100.00;96987.50;5011026;28;101888;-59
2022/10/05 07:48:22;;;;;;;7.03;6.33;;;;;;;12.74;100.00;96987.72;5027628;28;105434;-59
2022/10/05 07:51:01;;;;;;;6.73;6.13;;;;;;;13.03;100.00;96986.50;4990883;28;101765;-58
2022/10/05 07:53:36;;;;;;;6.30;5.43;;;;;;;13.05;100.00;96989.72;4990737;28;105343;-59
2022/10/05 07:56:10;;;;;;;8.03;6.40;;;;;;;13.34;100.00;96985.75;4990192;28;105587;-59
2022/10/05 07:58:42;;;;;;;6.20;5.40;;;;;;;13.34;100.00;96988.41;4990830;28;101959;-58
2022/10/05 08:01:17;;;;;;;6.53;5.10;;;;;;;13.59;100.00;96985.97;4990925;28;105354;-58
2022/10/05 08:03:52;;;;;;;6.00;4.10;;;;;;;13.62;100.00;96975.59;4989947;28;105121;-58
2022/10/05 08:06:45;;;;;;;3.67;3.33;;;;;;;13.73;100.00;96976.50;4992327;28;101737;-58
2022/10/05 08:09:30;;;;;;;4.97;2.90;;;;;;;14.24;100.00;96973.94;4986995;28;103048;-58
2022/10/05 08:12:06;;;;;;;4.27;2.63;;;;;;;13.97;100.00;96972.38;4995235;28;102677;-58
2022/10/05 08:14:44;;;;;;;5.20;2.67;;;;;;;13.93;100.00;96984.66;4987523;28;105059;-58
2022/10/05 08:17:23;;;;;;;3.30;2.37;;;;;;;14.18;100.00;96980.25;4971586;28;102608;-58
2022/10/05 08:20:01;;;;;;;2.87;2.27;;;;;;;14.49;100.00;96975.94;4980841;28;101948;-59
2022/10/05 08:22:33;;;;;;;2.83;2.30;;;;;;;14.61;100.00;96969.28;4990193;28;105058;-59
2022/10/05 08:25:05;;;;;;;5.70;2.37;;;;;;;14.74;100.00;96963.47;4989873;28;106376;-59
2022/10/05 08:27:46;;;;;;;3.37;2.20;;;;;;;15.06;100.00;96982.84;4990027;28;102122;-59
2022/10/05 08:30:16;;;;;;;3.13;2.50;;;;;;;14.96;100.00;96969.44;4991828;28;102784;-59
2022/10/05 08:32:50;;;;;;;2.57;2.13;;;;;;;15.36;100.00;96979.47;4989570;28;105560;-59
2022/10/05 08:35:25;;;;;;;5.40;2.47;;;;;;;15.65;100.00;96965.25;4993633;28;102108;-59
2022/10/05 08:38:05;;;;;;;5.30;2.10;;;;;;;15.63;100.00;96966.59;4989679;28;106262;-59
2022/10/05 08:41:04;;;;;;;3.57;2.23;;;;;;;15.49;100.00;96973.59;4989785;28;102739;-59
2022/10/05 08:43:55;;;;;;;2.70;2.10;;;;;;;15.66;100.00;96969.56;4990617;28;102449;-59
2022/10/05 08:46:56;;;;;;;3.23;2.30;;;;;;;16.02;100.00;96975.72;4989511;28;104008;-60
2022/10/05 08:49:51;;;;;;;2.40;1.83;;;;;;;15.81;100.00;96969.56;5006898;28;102115;-59
2022/10/05 08:52:27;;;;;;;3.97;1.90;;;;;;;16.40;100.00;96973.25;5031395;28;102361;-60
2022/10/05 08:55:20;;;;;;;3.40;1.77;;;;;;;16.74;100.00;96970.75;5029484;28;104179;-60
2022/10/05 08:58:04;;;;;;;4.07;1.87;;;;;;;16.92;100.00;96970.13;5019547;28;101973;-60
2022/10/05 09:00:41;;;;;;;4.13;1.67;;;;;;;16.92;100.00;96970.13;5014250;28;102296;-60
2022/10/05 09:03:43;;;;;;;4.57;1.50;;;;;;;16.94;100.00;96976.03;5009661;28;101971;-61
2022/10/05 09:06:50;;;;;;;3.47;1.70;;;;;;;17.45;100.00;96975.47;5022511;28;104844;-60
2022/10/05 09:09:37;;;;;;;2.47;2.00;;;;;;;17.49;100.00;96981.13;5004531;28;105508;-60
2022/10/05 09:12:31;;;;;;;2.70;1.73;;;;;;;17.36;100.00;96979.00;5009791;28;101989;-60
2022/10/05 09:15:17;;;;;;;4.60;1.50;;;;;;;17.24;100.00;96981.25;5009687;28;105247;-60
2022/10/05 09:18:31;;;;;;;3.47;1.40;;;;;;;16.89;100.00;96986.81;5015868;28;103139;-60
2022/10/05 09:21:06;;;;;;;1.40;1.30;;;;;;;17.61;100.00;96986.94;5029676;28;102026;-60
2022/10/05 09:23:41;;;;;;;1.70;1.60;;;;;;;17.92;100.00;96997.19;5034044;27;102498;-60
2022/10/05 09:26:43;;;;;;;1.50;1.40;;;;;;;17.89;100.00;96986.19;5030969;27;101776;-60
2022/10/05 09:29:36;;;;;;;1.83;1.57;;;;;;;18.20;100.00;96992.94;5029620;28;105674;-60
2022/10/05 09:32:28;;;;;;;1.90;1.50;;;;;;;18.25;100.00;96995.56;5028906;28;104932;-60
2022/10/05 09:35:09;;;;;;;2.47;1.20;;;;;;;17.99;100.00;96999.56;5030993;28;101832;-60
2022/10/05 09:41:45;;;;;;;2.27;1.23;;;;;;;18.54;100.00;96993.69;5028756;28;105820;-60
2022/10/05 09:44:40;;;;;;;2.33;1.00;;;;;;;18.83;100.00;96997.13;5029289;28;101838;-60
2022/10/05 09:47:34;;;;;;;1.23;1.13;;;;;;;18.89;100.00;96988.69;5029040;28;105823;-60
2022/10/05 09:50:42;;;;;;;1.90;1.10;;;;;;;18.79;100.00;96985.28;5030851;28;105893;-60
2022/10/05 09:53:39;;;;;;;2.53;1.10;;;;;;;19.11;100.00;96985.44;5028573;28;103773;-60
2022/10/05 09:56:48;;;;;;;1.70;1.17;;;;;;;19.48;100.00;96988.19;5028492;28;106030;-60
2022/10/05 09:59:50;;;;;;;1.00;1.00;;;;;;;19.74;100.00;96984.84;5019746;28;102053;-60
2022/10/05 10:02:40;;;;;;;4.07;1.20;;;;;;;19.88;100.00;96982.97;5028532;28;105230;-60
2022/10/05 10:05:31;;;;;;;1.67;1.00;;;;;;;19.90;100.00;96985.41;5028231;28;104211;-60
2022/10/05 10:08:09;;;;;;;1.57;1.00;;;;;;;20.07;100.00;96985.69;5028864;28;102054;-60
2022/10/05 10:11:00;;;;;;;1.67;1.40;;;;;;;20.20;100.00;96979.50;5029021;28;104763;-60
2022/10/05 10:13:59;;;;;;;1.53;1.00;;;;;;;20.39;100.00;96977.56;5029585;27;102935;-60
2022/10/05 10:16:52;;;;;;;2.20;1.43;;;;;;;20.78;100.00;96980.59;4999686;28;102275;-60
2022/10/05 10:20:10;;;;;;;1.60;1.30;;;;;;;20.91;100.00;96977.91;5029410;27;103075;-60
2022/10/05 10:23:13;;;;;;;2.13;1.27;;;;;;;20.73;100.00;96978.78;4994121;28;102097;-61
2022/10/05 10:26:17;;;;;;;1.77;1.10;;;;;;;20.69;100.00;96979.69;5030404;28;102463;-60
2022/10/05 10:29:31;;;;;;;1.53;1.10;;;;;;;20.66;100.00;96980.28;5027958;28;105181;-60
2022/10/05 10:32:15;;;;;;;1.60;0.93;;;;;;;20.52;100.00;96971.34;5028410;28;101993;-60
2022/10/05 10:35:14;;;;;;;1.17;1.00;;;;;;;20.69;100.00;96968.88;5028833;28;105519;-60
2022/10/05 10:38:19;;;;;;;1.50;1.40;;;;;;;20.99;100.00;96971.00;5027931;28;105709;-61
2022/10/05 10:41:08;;;;;;;4.27;2.27;;;;;;;21.16;100.00;96976.59;5028426;28;102016;-60
2022/10/05 10:43:52;;;;;;;5.10;1.70;;;;;;;21.74;100.00;96977.47;5028275;28;105124;-60
2022/10/05 10:46:39;;;;;;;1.60;1.43;;;;;;;22.08;100.00;96973.09;5028399;28;101790;-60
2022/10/05 10:49:25;;;;;;;1.77;1.60;;;;;;;22.14;100.00;96977.28;5027722;28;105347;-60
2022/10/05 10:55:19;;;;;;;3.13;1.40;;;;;;;;;;5028556;28;101685;-60
2022/10/05 10:58:34;;;;;;;2.00;1.20;;;;;;;22.29;100.00;96970.69;5014063;27;101662;-60
2022/10/05 11:01:11;;;;;;;1.67;1.17;;;;;;;22.45;100.00;96972.69;5027347;28;106021;-60
2022/10/05 11:04:15;;;;;;;1.50;1.20;;;;;;;22.51;100.00;96970.66;5031308;27;102125;-60
2022/10/05 11:10:26;;;;;;;1.73;1.40;;;;;;;23.03;100.00;96977.88;5034616;28;105966;-61
2022/10/05 11:13:23;;;;;;;1.40;1.30;;;;;;;23.18;94.79;96967.44;5031668;28;105165;-61
2022/10/05 11:16:30;;;;;;;3.03;1.30;;;;;;;23.25;96.17;96964.22;5031049;28;106114;-61
2022/10/05 11:19:33;;;;;;;2.30;1.27;;;;;;;22.97;100.00;96968.28;5031308;28;101971;-61
2022/10/05 11:22:38;;;;;;;3.80;1.37;;;;;;;23.35;96.89;96961.22;4953826;28;105155;-60
2022/10/05 11:25:36;;;;;;;4.20;1.27;;;;;;;23.11;100.00;96950.75;4970063;28;104467;-60
2022/10/05 11:28:36;;;;;;;1.20;1.10;;;;;;;23.25;100.00;96947.94;4970693;28;102088;-60
2022/10/05 11:31:40;;;;;;;1.67;1.27;;;;;;;23.56;94.02;96944.00;4954070;28;105559;-60
2022/10/05 11:34:27;;;;;;;2.97;1.20;;;;;;;23.70;95.73;96943.84;4952766;28;105899;-61
2022/10/05 11:37:25;;;;;;;2.97;1.60;;;;;;;24.17;97.21;96940.94;4954322;28;102098;-60
2022/10/05 11:40:16;;;;;;;1.43;1.30;;;;;;;24.03;100.00;96936.81;4965748;28;105806;-60
2022/10/05 11:43:05;;;;;;;3.00;1.50;;;;;;;23.93;100.00;96937.13;4953395;28;101997;-61
2022/10/05 11:45:46;;;;;;;2.90;1.20;;;;;;;23.87;83.13;96936.47;4929723;28;105561;-61
2022/10/05 11:48:34;;;;;;;1.60;1.03;;;;;;;23.94;98.64;96938.72;4945647;28;105721;-60
2022/10/05 11:51:45;;;;;;;3.37;1.03;;;;;;;24.38;100.00;96922.00;4970405;28;102273;-60
2022/10/05 11:54:23;;;;;;;2.97;1.20;;;;;;;24.26;75.76;96921.88;4953548;28;105687;-60
2022/10/05 11:56:57;;;;;;;2.03;1.00;;;;;;;24.10;72.70;96918.91;4953133;28;105746;-60
2022/10/05 11:59:33;;;;;;;1.73;1.10;;;;;;;24.31;65.34;96916.28;5005931;28;102006;-59
2022/10/05 12:02:12;;;;;;;3.97;1.20;;;;;;;24.43;63.72;96913.66;5030192;28;105299;-62
2022/10/05 12:04:49;;;;;;;2.30;1.30;;;;;;;24.73;63.88;96907.19;5030706;28;102344;-61
2022/10/05 12:07:31;;;;;;;3.37;1.00;;;;;;;24.30;63.09;96909.25;5030407;28;105488;-60
2022/10/05 12:10:21;;;;;;;4.40;1.40;;;;;;;24.87;67.41;96902.28;5030354;28;105675;-60
2022/10/05 12:13:18;;;;;;;2.93;1.20;;;;;;;25.03;63.17;96904.13;5030070;28;101853;-60
2022/10/05 12:16:18;;;;;;;4.53;1.10;;;;;;;24.68;51.04;96893.75;5030791;28;102585;-61
2022/10/05 12:18:53;;;;;;;1.80;1.10;;;;;;;24.51;51.47;96899.22;5029621;28;105734;-61
2022/10/05 12:21:31;;;;;;;1.30;0.97;;;;;;;25.26;61.61;96888.28;5030676;28;101774;-61
2022/10/05 12:24:02;;;;;;;1.10;0.70;;;;;;;25.30;52.75;96886.50;5033176;28;105631;-61
2022/10/05 12:26:50;;;;;;;1.10;0.90;;;;;;;25.55;44.77;96888.22;5030498;28;101885;-60
2022/10/05 12:29:24;;;;;;;0.97;0.80;;;;;;;25.85;60.30;96886.97;5030301;28;104087;-61
2022/10/05 12:31:59;;;;;;;1.97;0.90;;;;;;;25.64;44.79;96878.84;5029661;28;105191;-61
2022/10/05 12:34:36;;;;;;;5.30;1.13;;;;;;;25.79;44.84;96880.16;5031118;28;102257;-67
2022/10/05 12:37:11;;;;;;;3.03;1.13;;;;;;;25.72;43.71;96879.91;5030882;27;102885;-60
2022/10/05 12:39:44;;;;;;;1.90;0.80;;;;;;;25.40;39.33;96877.94;5029192;28;105445;-60
2022/10/05 12:42:24;;;;;;;1.87;0.80;;;;;;;25.70;41.84;96879.44;5031448;28;102342;-60
2022/10/05 12:45:07;;;;;;;1.40;0.90;;;;;;;25.79;43.32;96869.25;5030109;28;104798;-60